Time;durP1;ratioP1;P1;durP2;ratioP2;P2;SDS_P1;SDS_P2;PMS_P1;PMS_P2;Temp;Humidity;BMP_temperature;BMP_pressure;BME280_temperature;BME280_humidity;BME280_pressure;Samples;Min_cycle;Max_cycle;Signal;HPM_P1;HPM_P2
2022/06/25 00:01:42;;;;;;;;;;;16.40;99.90;;;;;;5106609;27;19926;-55
2022/06/25 00:07:19;;;;;;;;;;;16.40;99.90;;;;;;5119112;27;19917;-57
2022/06/25 00:09:59;;;;;;;;;;;16.40;99.90;;;;;;5122600;27;19916;-58
2022/06/25 00:12:38;;;;;;;;;;;16.40;99.90;;;;;;5122787;27;19918;-57
2022/06/25 00:15:18;;;;;;;;;;;16.30;99.90;;;;;;5104449;27;19965;-57
2022/06/25 00:17:58;;;;;;;;;;;16.40;99.90;;;;;;5090113;27;19953;-56
2022/06/25 00:20:38;;;;;;;;;;;16.40;99.90;;;;;;5123154;27;19912;-57
2022/06/25 00:23:18;;;;;;;;;;;16.40;99.90;;;;;;5124231;27;19918;-56
2022/06/25 00:25:58;;;;;;;;;;;16.40;99.90;;;;;;5123477;27;19949;-56
2022/06/25 00:28:37;;;;;;;;;;;16.40;99.90;;;;;;5103549;27;20419;-57
2022/06/25 00:31:17;;;;;;;;;;;16.40;99.90;;;;;;5124093;27;20339;-56
2022/06/25 00:33:57;;;;;;;;;;;16.30;99.90;;;;;;5124715;27;20288;-57
2022/06/25 00:36:37;;;;;;;;;;;16.30;99.90;;;;;;5101328;27;19912;-58
2022/06/25 00:39:17;;;;;;;;;;;16.30;99.90;;;;;;5113746;27;19918;-57
2022/06/25 00:41:57;;;;;;;;;;;16.20;99.90;;;;;;5122866;27;19911;-57
2022/06/25 00:44:37;;;;;;;;;;;16.20;99.90;;;;;;5123974;27;19934;-57
2022/06/25 00:47:16;;;;;;;;;;;16.20;99.90;;;;;;5116958;27;19912;-57
2022/06/25 00:49:56;;;;;;;;;;;16.30;99.90;;;;;;5065715;27;19931;-57
2022/06/25 00:52:38;;;;;;;;;;;16.30;99.90;;;;;;5123912;27;19918;-57
2022/06/25 00:55:20;;;;;;;;;;;16.30;99.90;;;;;;5124759;27;19922;-57
2022/06/25 00:58:01;;;;;;;;;;;16.40;99.90;;;;;;5116886;27;19916;-55
2022/06/25 01:00:42;;;;;;;;;;;16.40;99.90;;;;;;5122945;27;19915;-58
2022/06/25 01:03:22;;;;;;;;;;;16.40;99.90;;;;;;5116862;27;20454;-56
2022/06/25 01:06:01;;;;;;;;;;;16.30;99.90;;;;;;5123551;27;19946;-56
2022/06/25 01:08:41;;;;;;;;;;;16.30;99.90;;;;;;5104715;27;20377;-56
2022/06/25 01:11:21;;;;;;;;;;;16.30;99.90;;;;;;5124175;27;19918;-57
2022/06/25 01:14:06;;;;;;;;;;;16.30;99.90;;;;;;5125387;27;19912;-56
2022/06/25 01:16:46;;;;;;;;;;;16.30;99.90;;;;;;5125766;27;19945;-57
2022/06/25 01:19:25;;;;;;;;;;;16.30;99.90;;;;;;5104608;27;20324;-56
2022/06/25 01:22:07;;;;;;;;;;;16.30;99.90;;;;;;5126186;27;19912;-57
2022/06/25 01:24:48;;;;;;;;;;;16.20;99.90;;;;;;5126159;27;20412;-56
2022/06/25 01:27:28;;;;;;;;;;;16.20;99.90;;;;;;5121612;27;19926;-58
2022/06/25 01:30:10;;;;;;;;;;;16.20;99.90;;;;;;5104472;27;19917;-56
2022/06/25 01:32:49;;;;;;;;;;;16.20;99.90;;;;;;5124771;27;19941;-57
2022/06/25 01:35:31;;;;;;;;;;;16.20;99.90;;;;;;5124845;27;19916;-57
2022/06/25 01:38:14;;;;;;;;;;;16.10;99.90;;;;;;5130709;22;20385;-55
2022/06/25 01:40:54;;;;;;;;;;;16.20;99.90;;;;;;5102148;27;19930;-54
2022/06/25 01:43:34;;;;;;;;;;;16.10;99.90;;;;;;5124062;27;19912;-53
2022/06/25 01:46:15;;;;;;;;;;;16.10;99.90;;;;;;5102952;27;20672;-53
2022/06/25 01:48:55;;;;;;;;;;;16.10;99.90;;;;;;5083264;28;19917;-54
2022/06/25 01:51:34;;;;;;;;;;;16.10;99.90;;;;;;5103320;27;19930;-54
2022/06/25 01:54:14;;;;;;;;;;;16.10;99.90;;;;;;5124712;27;19916;-53
2022/06/25 01:56:54;;;;;;;;;;;16.10;99.90;;;;;;5097535;27;19916;-54
2022/06/25 01:59:34;;;;;;;;;;;16.10;99.90;;;;;;5118013;27;19927;-53
2022/06/25 02:02:14;;;;;;;;;;;16.10;99.90;;;;;;5103437;27;20278;-54
2022/06/25 02:04:54;;;;;;;;;;;16.10;99.90;;;;;;5145313;27;19926;-54
2022/06/25 02:07:35;;;;;;;;;;;16.10;99.90;;;;;;5116066;27;19912;-54
2022/06/25 02:10:15;;;;;;;;;;;16.10;99.90;;;;;;5122826;27;20316;-54
2022/06/25 02:12:55;;;;;;;;;;;16.10;99.90;;;;;;5116568;27;19924;-53
2022/06/25 02:15:35;;;;;;;;;;;16.10;99.90;;;;;;5102205;27;19926;-54
2022/06/25 02:18:16;;;;;;;;;;;16.10;99.90;;;;;;5112927;27;20198;-54
2022/06/25 02:20:56;;;;;;;;;;;16.10;99.90;;;;;;5122573;27;19912;-54
2022/06/25 02:23:37;;;;;;;;;;;16.10;99.90;;;;;;5123724;27;19915;-54
2022/06/25 02:26:17;;;;;;;;;;;16.10;99.90;;;;;;5118882;27;19916;-54
2022/06/25 02:28:57;;;;;;;;;;;16.00;99.90;;;;;;5111611;27;19916;-55
2022/06/25 02:31:37;;;;;;;;;;;16.00;99.90;;;;;;5122611;27;20113;-55
2022/06/25 02:34:18;;;;;;;;;;;16.00;99.90;;;;;;5124122;27;19912;-55
2022/06/25 02:36:58;;;;;;;;;;;16.00;99.90;;;;;;5112319;27;19938;-53
2022/06/25 02:39:41;;;;;;;;;;;16.00;99.90;;;;;;5086279;27;20451;-54
2022/06/25 02:42:21;;;;;;;;;;;16.00;99.90;;;;;;5100277;27;19912;-54
2022/06/25 02:45:01;;;;;;;;;;;16.00;99.90;;;;;;5081682;28;19913;-54
2022/06/25 02:47:41;;;;;;;;;;;16.00;99.90;;;;;;5116004;27;19929;-54
2022/06/25 02:50:25;;;;;;;;;;;16.00;99.90;;;;;;5122779;27;19915;-54
2022/06/25 02:53:05;;;;;;;;;;;16.00;99.90;;;;;;5123686;27;20324;-54
2022/06/25 02:58:56;;;;;;;;;;;16.00;99.90;;;;;;5101113;27;19911;-54
2022/06/25 03:01:43;;;;;;;;;;;15.90;99.90;;;;;;5117347;27;19923;-54
2022/06/25 03:04:25;;;;;;;;;;;16.00;99.90;;;;;;5123768;27;20377;-53
2022/06/25 03:07:07;;;;;;;;;;;15.90;99.90;;;;;;5121886;27;20328;-54
2022/06/25 03:09:47;;;;;;;;;;;16.00;99.90;;;;;;5103281;27;19957;-54
2022/06/25 03:12:29;;;;;;;;;;;16.00;99.90;;;;;;5112978;27;19912;-53
2022/06/25 03:15:21;;;;;;;;;;;15.90;99.90;;;;;;5123903;27;19912;-54
2022/06/25 03:18:03;;;;;;;;;;;15.90;99.90;;;;;;5107603;27;19913;-54
2022/06/25 03:21:03;;;;;;;;;;;15.90;99.90;;;;;;5103388;27;19926;-54
2022/06/25 03:23:45;;;;;;;;;;;15.90;99.90;;;;;;5123809;27;20344;-53
2022/06/25 03:26:24;;;;;;;;;;;15.90;99.90;;;;;;5101469;27;19912;-54
2022/06/25 03:29:08;;;;;;;;;;;15.90;99.90;;;;;;5111708;27;20361;-54
2022/06/25 03:31:49;;;;;;;;;;;15.90;99.90;;;;;;5117236;27;19912;-55
2022/06/25 03:34:48;;;;;;;;;;;15.90;99.90;;;;;;5103215;27;19926;-55
2022/06/25 03:37:29;;;;;;;;;;;15.90;99.90;;;;;;5121889;27;19911;-54
2022/06/25 03:40:10;;;;;;;;;;;16.00;99.90;;;;;;5144849;27;20384;-53
2022/06/25 03:42:51;;;;;;;;;;;16.00;99.90;;;;;;5104314;27;19918;-54
2022/06/25 03:45:30;;;;;;;;;;;16.00;99.90;;;;;;5124512;27;19985;-53
2022/06/25 03:48:12;;;;;;;;;;;16.00;99.90;;;;;;5097004;27;19930;-54
2022/06/25 03:51:13;;;;;;;;;;;16.00;99.90;;;;;;5106192;27;19912;-55
2022/06/25 03:53:54;;;;;;;;;;;16.00;99.90;;;;;;5122221;27;20463;-54
2022/06/25 03:56:35;;;;;;;;;;;16.00;99.90;;;;;;5120469;27;19918;-54
2022/06/25 03:59:15;;;;;;;;;;;16.00;99.90;;;;;;5100698;27;19973;-54
2022/06/25 04:01:57;;;;;;;;;;;16.00;99.90;;;;;;5144757;27;19911;-53
2022/06/25 04:04:41;;;;;;;;;;;16.00;99.90;;;;;;5124930;27;19912;-53
2022/06/25 04:07:21;;;;;;;;;;;16.00;99.90;;;;;;5118201;27;19953;-53
2022/06/25 04:10:01;;;;;;;;;;;16.00;99.90;;;;;;5147465;27;19911;-53
2022/06/25 04:12:42;;;;;;;;;;;16.10;99.90;;;;;;5104735;27;19912;-53
2022/06/25 04:15:22;;;;;;;;;;;16.10;99.90;;;;;;5116425;27;19916;-54
2022/06/25 04:18:02;;;;;;;;;;;16.10;99.90;;;;;;5106573;27;19953;-54
2022/06/25 04:20:42;;;;;;;;;;;16.20;99.90;;;;;;5123076;27;20479;-54
2022/06/25 04:23:22;;;;;;;;;;;16.20;99.90;;;;;;5104439;27;19926;-54
2022/06/25 04:26:03;;;;;;;;;;;16.20;99.90;;;;;;5122750;27;19912;-54
2022/06/25 04:31:53;;;;;;;;;;;16.30;99.90;;;;;;5130863;27;19912;-54
2022/06/25 04:35:02;;;;;;;;;;;16.30;99.90;;;;;;5103704;27;19916;-54
2022/06/25 04:37:45;;;;;;;;;;;16.30;99.90;;;;;;5106475;27;20373;-54
2022/06/25 04:40:29;;;;;;;;;;;16.30;99.90;;;;;;5122573;27;20266;-53
2022/06/25 04:43:09;;;;;;;;;;;16.40;99.90;;;;;;5144413;27;19911;-54
2022/06/25 04:45:51;;;;;;;;;;;16.40;99.90;;;;;;5103428;27;20407;-54
2022/06/25 04:48:37;;;;;;;;;;;16.40;99.90;;;;;;5103746;27;20540;-54
2022/06/25 04:51:41;;;;;;;;;;;16.50;99.90;;;;;;5124165;27;19915;-54
2022/06/25 04:54:21;;;;;;;;;;;16.50;99.90;;;;;;5104292;27;20327;-53
2022/06/25 04:57:06;;;;;;;;;;;16.50;99.90;;;;;;5096140;27;19927;-54
2022/06/25 04:59:50;;;;;;;;;;;16.70;99.90;;;;;;5124289;27;19912;-54
2022/06/25 05:02:41;;;;;;;;;;;16.80;99.90;;;;;;5104034;27;19926;-54
2022/06/25 05:05:27;;;;;;;;;;;16.90;99.90;;;;;;5124477;27;19927;-54
2022/06/25 05:08:07;;;;;;;;;;;17.00;99.90;;;;;;5123396;27;19915;-54
2022/06/25 05:10:47;;;;;;;;;;;17.10;99.90;;;;;;5124347;27;19919;-53
2022/06/25 05:13:27;;;;;;;;;;;17.20;99.90;;;;;;5125042;27;19920;-54
2022/06/25 05:16:06;;;;;;;;;;;17.30;99.90;;;;;;5124476;27;20218;-54
2022/06/25 05:18:48;;;;;;;;;;;17.40;99.90;;;;;;5104603;27;19916;-54
2022/06/25 05:21:28;;;;;;;;;;;17.40;99.90;;;;;;5124977;27;20040;-55
2022/06/25 05:24:11;;;;;;;;;;;17.50;99.90;;;;;;5125031;27;19915;-54
2022/06/25 05:26:51;;;;;;;;;;;17.60;99.90;;;;;;5116221;27;19912;-54
2022/06/25 05:29:30;;;;;;;;;;;17.60;99.90;;;;;;5111090;27;19922;-54
2022/06/25 05:32:10;;;;;;;;;;;17.60;99.90;;;;;;5098768;27;19920;-53
2022/06/25 05:34:50;;;;;;;;;;;17.80;99.90;;;;;;5124398;27;20308;-54
2022/06/25 05:37:30;;;;;;;;;;;17.80;99.90;;;;;;5071270;28;19917;-53
2022/06/25 05:40:11;;;;;;;;;;;17.80;99.90;;;;;;5124240;27;19929;-54
2022/06/25 05:42:51;;;;;;;;;;;17.80;99.90;;;;;;5124866;27;19965;-54
2022/06/25 05:45:31;;;;;;;;;;;17.70;99.90;;;;;;5124350;27;20391;-54
2022/06/25 05:48:11;;;;;;;;;;;17.60;99.90;;;;;;5123924;27;19912;-54
2022/06/25 05:50:51;;;;;;;;;;;17.60;99.90;;;;;;5124552;27;19930;-53
2022/06/25 05:53:30;;;;;;;;;;;17.60;99.90;;;;;;5124705;27;19912;-53
2022/06/25 05:56:10;;;;;;;;;;;17.50;99.90;;;;;;5124030;27;19918;-53
2022/06/25 05:58:50;;;;;;;;;;;17.50;99.90;;;;;;5112677;27;20265;-54
2022/06/25 06:01:30;;;;;;;;;;;17.50;99.90;;;;;;5139977;27;19915;-53
2022/06/25 06:04:10;;;;;;;;;;;17.50;99.90;;;;;;5115540;27;19920;-54
2022/06/25 06:06:51;;;;;;;;;;;17.50;99.90;;;;;;5122866;27;19930;-54
2022/06/25 06:09:32;;;;;;;;;;;17.50;99.90;;;;;;5121293;27;20369;-54
2022/06/25 06:12:12;;;;;;;;;;;17.60;99.90;;;;;;5116769;27;19915;-53
2022/06/25 06:14:52;;;;;;;;;;;17.60;99.90;;;;;;5102336;27;20319;-54
2022/06/25 06:17:33;;;;;;;;;;;17.60;99.90;;;;;;5082719;27;20386;-53
2022/06/25 06:20:14;;;;;;;;;;;17.60;99.90;;;;;;5122968;27;19912;-53
2022/06/25 06:22:53;;;;;;;;;;;17.70;99.90;;;;;;5103717;27;19912;-53
2022/06/25 06:25:33;;;;;;;;;;;17.70;99.90;;;;;;5124062;27;19933;-55
2022/06/25 06:28:13;;;;;;;;;;;17.80;99.90;;;;;;5103183;27;19926;-54
2022/06/25 06:30:53;;;;;;;;;;;17.80;99.90;;;;;;5103458;27;19912;-53
2022/06/25 06:33:33;;;;;;;;;;;17.90;99.90;;;;;;5124628;27;19912;-53
2022/06/25 06:36:13;;;;;;;;;;;17.90;99.90;;;;;;5082601;28;19912;-54
2022/06/25 06:38:54;;;;;;;;;;;17.90;99.90;;;;;;5123576;27;19934;-53
2022/06/25 06:41:34;;;;;;;;;;;17.90;99.90;;;;;;5121771;27;19912;-54
2022/06/25 06:44:14;;;;;;;;;;;17.90;99.90;;;;;;5102145;27;19953;-53
2022/06/25 06:46:53;;;;;;;;;;;18.00;99.90;;;;;;5101659;27;20320;-53
2022/06/25 06:49:33;;;;;;;;;;;18.30;99.90;;;;;;5124178;27;20345;-54
2022/06/25 06:52:13;;;;;;;;;;;18.60;99.90;;;;;;5124444;27;19916;-54
2022/06/25 06:54:53;;;;;;;;;;;18.90;99.90;;;;;;5124475;27;19926;-54
2022/06/25 06:57:33;;;;;;;;;;;19.10;99.90;;;;;;5112346;27;19922;-54
2022/06/25 07:00:13;;;;;;;;;;;19.40;99.90;;;;;;5124179;27;19939;-53
2022/06/25 07:02:54;;;;;;;;;;;19.60;99.90;;;;;;5112423;27;19930;-53
2022/06/25 07:05:34;;;;;;;;;;;19.70;99.90;;;;;;5124392;27;19916;-53
2022/06/25 07:08:14;;;;;;;;;;;19.90;99.90;;;;;;5124167;27;19920;-53
2022/06/25 07:10:53;;;;;;;;;;;20.20;99.90;;;;;;5144849;27;19938;-53
2022/06/25 07:13:33;;;;;;;;;;;20.30;99.90;;;;;;5199267;27;19937;-53
2022/06/25 07:16:13;;;;;;;;;;;20.30;99.90;;;;;;5102645;27;19961;-54
2022/06/25 07:18:53;;;;;;;;;;;20.40;99.90;;;;;;5103730;27;19926;-54
2022/06/25 07:21:33;;;;;;;;;;;20.40;99.90;;;;;;5123857;27;19918;-53
2022/06/25 07:24:13;;;;;;;;;;;20.50;99.90;;;;;;5104119;27;19918;-53
2022/06/25 07:26:52;;;;;;;;;;;20.50;99.90;;;;;;5097892;27;20316;-53
2022/06/25 07:29:33;;;;;;;;;;;20.40;99.90;;;;;;5124518;27;20265;-53
2022/06/25 07:32:12;;;;;;;;;;;20.50;99.90;;;;;;5083383;28;19912;-54
2022/06/25 07:34:52;;;;;;;;;;;20.50;99.90;;;;;;5120443;27;19912;-54
2022/06/25 07:37:32;;;;;;;;;;;20.60;99.90;;;;;;5122420;27;19911;-54
2022/06/25 07:40:24;;;;;;;;;;;20.70;99.90;;;;;;5124654;27;19912;-54
2022/06/25 07:43:05;;;;;;;;;;;20.80;99.90;;;;;;5103881;27;19911;-54
2022/06/25 07:45:45;;;;;;;;;;;20.80;99.90;;;;;;5123840;27;19911;-54
2022/06/25 07:48:24;;;;;;;;;;;20.60;99.90;;;;;;5118427;27;19912;-54
2022/06/25 07:54:02;;;;;;;;;;;20.10;99.90;;;;;;5121739;27;20308;-54
2022/06/25 07:56:42;;;;;;;;;;;19.90;99.90;;;;;;5126258;27;19915;-54
2022/06/25 07:59:24;;;;;;;;;;;19.90;99.90;;;;;;5080869;27;19917;-54
2022/06/25 08:02:04;;;;;;;;;;;20.00;99.90;;;;;;5098000;27;19913;-54
2022/06/25 08:04:44;;;;;;;;;;;20.30;99.90;;;;;;5110551;27;19912;-54
2022/06/25 08:07:24;;;;;;;;;;;20.50;99.90;;;;;;5119476;27;19912;-54
2022/06/25 08:10:04;;;;;;;;;;;20.60;99.90;;;;;;5082337;28;19924;-54
2022/06/25 08:12:45;;;;;;;;;;;20.70;99.90;;;;;;5122694;27;20200;-54
2022/06/25 08:15:25;;;;;;;;;;;20.70;99.90;;;;;;5096461;27;20054;-54
2022/06/25 08:18:05;;;;;;;;;;;20.90;99.90;;;;;;5107139;27;19919;-54
2022/06/25 08:20:45;;;;;;;;;;;21.20;99.90;;;;;;5123560;27;19911;-54
2022/06/25 08:23:25;;;;;;;;;;;21.30;99.90;;;;;;5104315;27;19926;-54
2022/06/25 08:26:05;;;;;;;;;;;21.50;99.90;;;;;;5099405;27;20456;-54
2022/06/25 08:28:45;;;;;;;;;;;21.60;99.90;;;;;;5088906;27;19912;-54
2022/06/25 08:31:26;;;;;;;;;;;21.80;99.90;;;;;;5153125;27;20131;-54
2022/06/25 08:34:05;;;;;;;;;;;22.00;99.90;;;;;;5124332;27;20270;-54
2022/06/25 08:36:45;;;;;;;;;;;22.20;99.90;;;;;;5101337;27;19912;-54
2022/06/25 08:39:25;;;;;;;;;;;22.50;99.90;;;;;;5103646;27;19912;-54
2022/06/25 08:42:05;;;;;;;;;;;22.90;99.90;;;;;;5124423;27;19926;-54
2022/06/25 08:44:45;;;;;;;;;;;23.30;99.90;;;;;;5123386;27;19912;-54
2022/06/25 08:47:25;;;;;;;;;;;23.80;99.90;;;;;;5099789;27;19924;-54
2022/06/25 08:50:05;;;;;;;;;;;24.30;99.90;;;;;;5148783;27;19912;-54
2022/06/25 08:52:47;;;;;;;;;;;24.50;99.90;;;;;;5093872;27;19950;-55
2022/06/25 08:55:32;;;;;;;;;;;24.70;99.90;;;;;;5099422;27;19926;-54
2022/06/25 08:58:13;;;;;;;;;;;25.40;99.90;;;;;;5123542;27;19926;-55
2022/06/25 09:00:53;;;;;;;;;;;26.00;99.90;;;;;;5102281;27;20362;-55
2022/06/25 09:03:33;;;;;;;;;;;26.70;99.90;;;;;;5109033;27;19922;-55
2022/06/25 09:06:14;;;;;;;;;;;26.80;94.90;;;;;;5090983;27;19927;-55
2022/06/25 09:09:11;;;;;;;;;;;26.70;93.20;;;;;;5113856;27;19964;-54
2022/06/25 09:11:54;;;;;;;;;;;26.80;89.10;;;;;;5075675;28;19920;-55
2022/06/25 09:14:35;;;;;;;;;;;26.50;88.90;;;;;;5112053;27;19945;-54
2022/06/25 09:17:15;;;;;;;;;;;25.80;90.50;;;;;;5095063;27;19926;-54
2022/06/25 09:19:57;;;;;;;;;;;25.30;97.60;;;;;;5122879;27;19915;-54
2022/06/25 09:22:38;;;;;;;;;;;25.40;99.90;;;;;;5122812;27;19911;-54
2022/06/25 09:25:23;;;;;;;;;;;25.30;90.70;;;;;;5107493;27;19958;-55
2022/06/25 09:28:04;;;;;;;;;;;25.50;96.40;;;;;;5122814;27;19912;-55
2022/06/25 09:30:44;;;;;;;;;;;26.00;90.10;;;;;;5123633;27;19912;-55
2022/06/25 09:33:23;;;;;;;;;;;26.50;93.40;;;;;;5124601;27;19912;-54
2022/06/25 09:36:04;;;;;;;;;;;26.50;81.20;;;;;;5103376;27;19916;-55
2022/06/25 09:38:50;;;;;;;;;;;26.10;87.70;;;;;;5103298;27;19916;-54
2022/06/25 09:41:47;;;;;;;;;;;26.30;83.90;;;;;;5119785;27;19915;-54
2022/06/25 09:44:28;;;;;;;;;;;26.20;83.30;;;;;;5122146;27;19930;-54
2022/06/25 09:47:09;;;;;;;;;;;26.10;95.60;;;;;;5115957;27;19913;-54
2022/06/25 09:49:50;;;;;;;;;;;26.00;95.50;;;;;;5115416;27;20418;-53
2022/06/25 09:52:29;;;;;;;;;;;25.60;99.90;;;;;;5106043;27;20436;-54
2022/06/25 09:55:09;;;;;;;;;;;25.60;99.90;;;;;;5100496;27;19916;-54
2022/06/25 09:57:49;;;;;;;;;;;25.60;99.90;;;;;;5088615;27;19946;-54
2022/06/25 10:00:29;;;;;;;;;;;25.80;99.20;;;;;;5112983;27;19920;-55
2022/06/25 10:03:09;;;;;;;;;;;26.00;99.90;;;;;;5141351;27;20293;-56
2022/06/25 10:05:51;;;;;;;;;;;26.30;93.30;;;;;;5121618;27;20161;-55
2022/06/25 10:08:32;;;;;;;;;;;26.30;92.60;;;;;;5096075;27;19916;-54
2022/06/25 10:11:13;;;;;;;;;;;26.30;81.60;;;;;;5119578;27;19915;-55
2022/06/25 10:14:05;;;;;;;;;;;26.30;93.30;;;;;;5122417;27;19933;-54
2022/06/25 10:16:45;;;;;;;;;;;26.00;94.70;;;;;;5146880;27;19916;-53
2022/06/25 10:19:25;;;;;;;;;;;25.70;99.90;;;;;;5077333;28;19927;-54
2022/06/25 10:22:06;;;;;;;;;;;25.30;96.40;;;;;;5119533;27;19939;-54
2022/06/25 10:24:47;;;;;;;;;;;25.20;99.90;;;;;;5123514;27;19911;-53
2022/06/25 10:27:27;;;;;;;;;;;25.20;98.90;;;;;;5121702;27;19943;-54
2022/06/25 10:30:07;;;;;;;;;;;25.60;99.90;;;;;;5088559;27;20234;-54
2022/06/25 10:32:49;;;;;;;;;;;25.80;99.90;;;;;;5095235;27;19924;-54
2022/06/25 10:35:30;;;;;;;;;;;26.30;99.90;;;;;;5135259;27;19915;-54
2022/06/25 10:38:12;;;;;;;;;;;26.40;99.90;;;;;;5122324;27;19911;-54
2022/06/25 10:40:59;;;;;;;;;;;26.30;91.80;;;;;;5073116;28;19927;-55
2022/06/25 10:43:45;;;;;;;;;;;26.20;97.00;;;;;;5101298;27;19926;-54
2022/06/25 10:46:29;;;;;;;;;;;26.60;91.70;;;;;;5122051;27;20281;-54
2022/06/25 10:49:10;;;;;;;;;;;26.70;82.30;;;;;;5122489;27;19916;-54
2022/06/25 10:51:51;;;;;;;;;;;26.20;97.10;;;;;;5124009;27;19911;-54
2022/06/25 10:54:38;;;;;;;;;;;25.70;80.10;;;;;;5062537;28;19919;-54
2022/06/25 10:57:38;;;;;;;;;;;25.10;99.90;;;;;;5111892;27;19912;-54
2022/06/25 11:00:18;;;;;;;;;;;24.60;99.90;;;;;;5115501;27;19916;-53
2022/06/25 11:02:57;;;;;;;;;;;24.60;99.90;;;;;;5123598;27;20432;-54
2022/06/25 11:05:42;;;;;;;;;;;25.10;99.90;;;;;;5122726;27;19916;-54
2022/06/25 11:08:23;;;;;;;;;;;25.70;97.30;;;;;;5152560;27;19915;-54
2022/06/25 11:11:05;;;;;;;;;;;26.20;90.10;;;;;;5102868;27;20415;-55
2022/06/25 11:13:46;;;;;;;;;;;26.40;86.70;;;;;;5115439;27;20258;-54
2022/06/25 11:16:26;;;;;;;;;;;26.40;87.80;;;;;;5136438;27;19915;-55
2022/06/25 11:19:06;;;;;;;;;;;25.80;92.40;;;;;;5109533;27;19916;-55
2022/06/25 11:21:46;;;;;;;;;;;25.90;95.70;;;;;;5121518;27;19945;-54
2022/06/25 11:24:26;;;;;;;;;;;25.90;99.90;;;;;;5123150;27;19915;-54
2022/06/25 11:30:05;;;;;;;;;;;26.10;83.10;;;;;;5122198;27;19922;-55
2022/06/25 11:32:46;;;;;;;;;;;26.30;82.00;;;;;;5101300;27;19926;-54
2022/06/25 11:35:38;;;;;;;;;;;26.50;79.40;;;;;;5122635;27;19916;-54
2022/06/25 11:38:19;;;;;;;;;;;25.90;73.00;;;;;;5085487;27;19927;-54
2022/06/25 11:41:00;;;;;;;;;;;25.30;94.80;;;;;;5116908;27;19953;-54
2022/06/25 11:43:40;;;;;;;;;;;25.00;98.20;;;;;;5121562;27;20184;-54
2022/06/25 11:46:20;;;;;;;;;;;25.10;85.30;;;;;;5120744;27;19916;-53
2022/06/25 11:49:00;;;;;;;;;;;25.40;74.80;;;;;;5122872;27;20188;-54
2022/06/25 11:51:43;;;;;;;;;;;25.60;72.90;;;;;;5123380;27;19912;-54
2022/06/25 11:54:25;;;;;;;;;;;25.90;75.40;;;;;;5124153;27;20336;-54
2022/06/25 11:57:06;;;;;;;;;;;26.00;75.90;;;;;;5075405;28;19913;-54
2022/06/25 11:59:49;;;;;;;;;;;25.80;74.00;;;;;;5102062;27;19953;-54
2022/06/25 12:02:30;;;;;;;;;;;25.80;71.40;;;;;;5124133;27;19911;-54
2022/06/25 12:05:10;;;;;;;;;;;25.60;63.80;;;;;;5124454;27;19916;-54
2022/06/25 12:07:51;;;;;;;;;;;25.80;65.30;;;;;;5123454;27;19922;-54
2022/06/25 12:10:31;;;;;;;;;;;25.90;61.10;;;;;;5123779;27;19916;-54
2022/06/25 12:13:14;;;;;;;;;;;26.20;58.70;;;;;;5103426;27;19934;-55
2022/06/25 12:15:58;;;;;;;;;;;26.20;56.80;;;;;;5129664;27;20347;-54
2022/06/25 12:18:39;;;;;;;;;;;26.40;60.60;;;;;;5123467;27;19912;-55
2022/06/25 12:21:20;;;;;;;;;;;26.80;57.80;;;;;;5103542;27;20430;-54
2022/06/25 12:24:02;;;;;;;;;;;26.70;57.70;;;;;;5123699;27;19929;-54
2022/06/25 12:26:51;;;;;;;;;;;26.80;59.60;;;;;;5119490;27;20550;-55
2022/06/25 12:29:30;;;;;;;;;;;27.30;63.50;;;;;;5081863;28;19913;-54
2022/06/25 12:32:10;;;;;;;;;;;27.60;52.80;;;;;;5124495;27;19912;-54
2022/06/25 12:34:51;;;;;;;;;;;27.30;53.80;;;;;;5103395;27;19912;-54
2022/06/25 12:37:32;;;;;;;;;;;26.80;55.10;;;;;;5091409;27;20394;-53
2022/06/25 12:40:23;;;;;;;;;;;26.20;55.70;;;;;;5122818;27;19919;-55
2022/06/25 12:43:05;;;;;;;;;;;25.60;60.30;;;;;;5124491;27;19912;-54
2022/06/25 12:45:46;;;;;;;;;;;25.20;59.50;;;;;;5102863;27;19912;-54
2022/06/25 12:48:29;;;;;;;;;;;25.60;59.60;;;;;;5123914;27;20179;-54
2022/06/25 12:51:11;;;;;;;;;;;26.00;58.60;;;;;;5124100;27;19926;-54
2022/06/25 12:53:56;;;;;;;;;;;26.60;58.80;;;;;;5124537;27;20303;-55
2022/06/25 12:56:36;;;;;;;;;;;27.10;54.80;;;;;;5120663;27;19912;-54
2022/06/25 12:59:16;;;;;;;;;;;27.00;54.90;;;;;;5103647;27;20165;-54
2022/06/25 13:01:55;;;;;;;;;;;26.80;56.30;;;;;;5109188;27;19923;-54
2022/06/25 13:04:35;;;;;;;;;;;27.10;54.90;;;;;;5108450;27;19915;-54
2022/06/25 13:07:15;;;;;;;;;;;27.10;52.20;;;;;;5121576;27;20262;-54
2022/06/25 13:09:55;;;;;;;;;;;27.00;54.60;;;;;;5101691;27;19916;-54
2022/06/25 13:12:35;;;;;;;;;;;27.10;52.50;;;;;;5123612;27;19916;-55
2022/06/25 13:15:15;;;;;;;;;;;27.30;52.70;;;;;;5110729;27;19928;-54
2022/06/25 13:17:54;;;;;;;;;;;27.40;52.50;;;;;;5117310;27;19927;-55
2022/06/25 13:20:34;;;;;;;;;;;27.50;52.00;;;;;;5123257;27;19918;-54
2022/06/25 13:23:14;;;;;;;;;;;27.60;52.60;;;;;;5109640;27;19965;-54
2022/06/25 13:25:54;;;;;;;;;;;27.70;49.10;;;;;;5120098;27;19911;-54
2022/06/25 13:28:34;;;;;;;;;;;27.70;48.90;;;;;;5122108;27;19912;-54
2022/06/25 13:31:16;;;;;;;;;;;26.90;50.10;;;;;;5123133;27;20340;-54
2022/06/25 13:33:57;;;;;;;;;;;26.40;52.10;;;;;;5121811;27;19928;-54
2022/06/25 13:36:37;;;;;;;;;;;26.40;54.00;;;;;;5119352;27;19928;-54
2022/06/25 13:39:16;;;;;;;;;;;26.80;55.10;;;;;;5107918;27;19916;-54
2022/06/25 13:41:56;;;;;;;;;;;27.10;52.00;;;;;;5112704;27;20328;-54
2022/06/25 13:44:57;;;;;;;;;;;27.00;50.70;;;;;;5119999;27;19927;-55
2022/06/25 13:47:37;;;;;;;;;;;26.40;52.60;;;;;;5119282;27;20376;-55
2022/06/25 13:50:16;;;;;;;;;;;26.60;54.10;;;;;;5119121;27;20632;-55
2022/06/25 13:52:56;;;;;;;;;;;26.70;52.60;;;;;;5109394;27;19916;-55
2022/06/25 13:55:36;;;;;;;;;;;26.90;52.60;;;;;;5122219;27;19934;-56
2022/06/25 13:58:16;;;;;;;;;;;27.10;50.80;;;;;;5168460;27;19967;-56
2022/06/25 14:00:57;;;;;;;;;;;27.40;49.50;;;;;;5124253;27;19912;-56
2022/06/25 14:03:37;;;;;;;;;;;27.60;50.30;;;;;;5112649;27;19919;-55
2022/06/25 14:06:17;;;;;;;;;;;27.70;48.90;;;;;;5124481;27;19912;-55
2022/06/25 14:08:57;;;;;;;;;;;27.90;46.70;;;;;;5096436;27;19920;-55
2022/06/25 14:11:37;;;;;;;;;;;28.10;47.80;;;;;;5122464;27;20285;-54
2022/06/25 14:14:16;;;;;;;;;;;28.50;47.70;;;;;;5114455;27;19916;-55
2022/06/25 14:16:56;;;;;;;;;;;28.70;47.40;;;;;;5074399;28;19931;-55
2022/06/25 14:19:36;;;;;;;;;;;28.90;47.00;;;;;;5121058;27;19928;-55
2022/06/25 14:22:16;;;;;;;;;;;29.00;43.60;;;;;;5122202;27;19916;-55
2022/06/25 14:27:54;;;;;;;;;;;28.50;44.20;;;;;;5100117;27;19927;-55
2022/06/25 14:30:35;;;;;;;;;;;28.70;43.70;;;;;;5103702;27;19912;-54
2022/06/25 14:33:14;;;;;;;;;;;28.70;43.70;;;;;;5115047;27;19958;-55
2022/06/25 14:44:49;;;;;;;;;;;29.40;45.00;;;;;;5103206;27;19954;-55
2022/06/25 14:47:30;;;;;;;;;;;29.50;43.00;;;;;;5123678;27;19912;-55
2022/06/25 14:50:10;;;;;;;;;;;29.30;44.10;;;;;;5123547;27;20392;-56
2022/06/25 14:52:51;;;;;;;;;;;29.30;45.00;;;;;;5123650;27;19920;-55
2022/06/25 14:55:31;;;;;;;;;;;29.40;42.50;;;;;;5124334;27;19915;-55
2022/06/25 14:58:11;;;;;;;;;;;29.40;42.30;;;;;;5125071;27;20725;-54
2022/06/25 15:00:50;;;;;;;;;;;29.50;44.20;;;;;;5124230;27;19912;-55
2022/06/25 15:03:30;;;;;;;;;;;29.80;44.60;;;;;;5113888;27;19930;-55
2022/06/25 15:06:11;;;;;;;;;;;29.80;41.70;;;;;;5124715;27;19912;-55
2022/06/25 15:08:51;;;;;;;;;;;29.70;40.50;;;;;;5103355;27;20212;-55
2022/06/25 15:11:31;;;;;;;;;;;29.80;41.00;;;;;;5103603;27;19965;-55
2022/06/25 15:14:11;;;;;;;;;;;30.00;39.10;;;;;;5124806;27;19912;-56
2022/06/25 15:16:51;;;;;;;;;;;30.00;38.00;;;;;;5102794;27;19953;-54
2022/06/25 15:19:31;;;;;;;;;;;29.90;38.10;;;;;;5122920;27;19927;-55
2022/06/25 15:22:11;;;;;;;;;;;30.00;41.50;;;;;;5124076;27;20505;-54
2022/06/25 15:24:51;;;;;;;;;;;30.50;40.20;;;;;;5103542;27;19930;-55
2022/06/25 15:27:30;;;;;;;;;;;31.90;36.60;;;;;;5123536;27;19923;-55
2022/06/25 15:30:10;;;;;;;;;;;33.40;35.20;;;;;;5104020;27;19912;-55
2022/06/25 15:32:50;;;;;;;;;;;34.40;31.20;;;;;;5124001;27;19915;-55
2022/06/25 15:35:30;;;;;;;;;;;35.10;28.40;;;;;;5123385;27;19915;-55
2022/06/25 15:38:10;;;;;;;;;;;35.80;27.60;;;;;;5116915;27;19915;-54
2022/06/25 15:40:50;;;;;;;;;;;36.30;27.40;;;;;;5102646;27;19918;-55
2022/06/25 15:43:29;;;;;;;;;;;36.60;26.20;;;;;;5094592;27;19924;-55
2022/06/25 15:46:09;;;;;;;;;;;37.30;25.20;;;;;;5123322;27;19912;-55
2022/06/25 15:48:50;;;;;;;;;;;37.40;24.20;;;;;;5121843;27;19922;-54
2022/06/25 15:51:30;;;;;;;;;;;37.80;25.30;;;;;;5118796;27;19918;-55
2022/06/25 15:54:10;;;;;;;;;;;37.80;23.80;;;;;;5116991;27;20209;-56
2022/06/25 15:56:51;;;;;;;;;;;37.90;25.20;;;;;;5119351;27;19929;-55
2022/06/25 15:59:37;;;;;;;;;;;36.10;25.30;;;;;;5101424;27;19926;-55
2022/06/25 16:02:18;;;;;;;;;;;33.90;26.70;;;;;;5122914;27;20082;-55
2022/06/25 16:04:57;;;;;;;;;;;31.70;30.60;;;;;;5110308;27;20285;-56